Accueil
METAR-TAF:

METAR-TAF

Aéroports :

Aérodrome de Louang Namtha

Louang Namtha, Laos

latitude: 20-57-38N, longitude: 101-24-09E, altitude: 600 m

Observation

Le bulletin a été fait il y a 7 heures et 23 minutes, à 12:00 UTC
Vent 2 kt de sud-est
Température 29°C
Humidité 74%
Pression 1012 hPa
Visibilité: 9000 m
Quelques nuages à une hauteur de 2000 ft

METAR: VLLN 071200Z 14002KT 9000 FEW020 29/24 Q1012 NOSIG

Heure: 00:53 (19:23 UTC)

Prévision

Le bulletin a été fait il y a 8 heures et 23 minutes, à 11:00 UTC
Prévision valable du 07 à 12 UTC au 08 à 12 UTC
Vent 4 kt de ouest
Visibilité: 7000 m
Nuages épars à une hauteur de 1300 ft
Nuages épars à une hauteur de 10000 ft

TAF: VLLN 071100Z 0712/0812 27004KT 7000 SCT013 SCT100

Observations et prévisions météorologiques de plus de 4000 aéroports (messages METAR et TAF).

Les stations disponibles sont représentées par des disques jaunes et rouges sur la carte.

Passer la souris dessus pour voir le nom de la station.

Cliquer dessus pour voir les observations et prévisions météorologiques.

Pour changer de carte: cliquez sur les boutons verts avec une croix noire pour zoomer, sur le bouton vert avec un tiret pour effectuer un zoom arrière, ou sur les flèches vertes pour les cartes adjacentes.


METAR-TAF: